Portada
METAR-TAF:

METAR-TAF

Aeroports :

Multan, Pakistan

latitud: 30-12-12N, longitud: 71-25-09E, altitud: 122 m

Observació

L'informe es va fer fa 1 hora i 8 minuts, a les 20:00 UTC
Vent calma
Temperatura 25°C
Humitat 74%
Pressió 1012 hPa
Visibilitat: 3000 m
fum

METAR: OPMT 162000Z 00000KT 3000 FU NSC 25/20 Q1012 NOSIG

Hora: 02:08 (21:08 UTC)

Pronòstic

L'informe es va fer fa 4 hores i 58 minuts, a les 16:10 UTC
Pronòstic vàlid del 16 a les 18 UTC al 17 a les 12 UTC
Vent 5 kt del Sud-Est
Visibilitat: 3000 m
fum
Probabilitat 30% :
Temporalment
l' 17 a les 01 UTC al 17 a les 05 UTC
Vent kt del Nord
Visibilitat: 2000 m
Escasses núvols a una alçada de 12000 ft
boirina
A partir de les UTC
Vent 5 kt del Sud-Oest
Visibilitat: 5000 m
Núvols disperses a una alçada de 12000 ft
calitja

TAF: OPMT 161610Z 1618/1712 13005KT 3000 FU NSC TN22/1701Z TX35/1710Z PROB30 TEMPO 1701/1705 00000KT 2000 BR FEW120 FM 170700 23005KT 5000 HZ SCT120

Observacions i pronòstics meteorològics de més de 4000 aeroports (METAR i TAF).

Les estacions disponibles són els punts grocs i vermells al mapa.

Posi el ratolí al punt desitjat per veure el nom de l'estació.

Feu clic per veure les observacions i els pronòstics meteorològics.

Per canviar el mapa: feu clic els botons verds amb una creu de color negre per apropar; al botó verd amb un guió per allunyar la imatge; o en les fletxes verdes per a mapes adjacents.


METAR-TAF: